sensor_id;sensor_type;location;lat;lon;timestamp;pressure;altitude;pressure_sealevel;temperature;humidity
56518;BME280;42419;48.760;2.322;2023-05-03T00:02:07;101726.38;;;23.71;34.83
56518;BME280;42419;48.760;2.322;2023-05-03T00:04:34;101705.38;;;23.59;34.90
56518;BME280;42419;48.760;2.322;2023-05-03T00:07:00;101737.91;;;23.75;34.58
56518;BME280;42419;48.760;2.322;2023-05-03T00:09:25;101733.41;;;23.76;34.89
56518;BME280;42419;48.760;2.322;2023-05-03T00:11:50;101724.44;;;23.75;34.58
56518;BME280;42419;48.760;2.322;2023-05-03T00:14:17;101722.63;;;23.76;34.97
56518;BME280;42419;48.760;2.322;2023-05-03T00:16:42;101711.88;;;23.76;34.39
56518;BME280;42419;48.760;2.322;2023-05-03T00:19:08;101695.94;;;23.71;34.78
56518;BME280;42419;48.760;2.322;2023-05-03T00:21:33;101714.44;;;23.79;34.92
56518;BME280;42419;48.760;2.322;2023-05-03T00:23:59;101714.44;;;23.79;34.78
56518;BME280;42419;48.760;2.322;2023-05-03T00:26:24;101721.66;;;23.78;34.46
56518;BME280;42419;48.760;2.322;2023-05-03T00:28:51;101725.16;;;23.80;34.44
56518;BME280;42419;48.760;2.322;2023-05-03T00:31:16;101717.25;;;23.76;34.68
56518;BME280;42419;48.760;2.322;2023-05-03T00:33:41;101733.16;;;23.82;34.61
56518;BME280;42419;48.760;2.322;2023-05-03T00:36:11;101730.34;;;23.85;34.37
56518;BME280;42419;48.760;2.322;2023-05-03T00:38:38;101723.22;;;23.84;34.13
56518;BME280;42419;48.760;2.322;2023-05-03T00:41:03;101720.50;;;23.84;34.36
56518;BME280;42419;48.760;2.322;2023-05-03T00:43:29;101731.28;;;23.84;34.51
56518;BME280;42419;48.760;2.322;2023-05-03T00:45:55;101722.28;;;23.85;34.31
56518;BME280;42419;48.760;2.322;2023-05-03T00:48:20;101719.63;;;23.83;34.06
56518;BME280;42419;48.760;2.322;2023-05-03T00:50:46;101713.41;;;23.83;34.21
56518;BME280;42419;48.760;2.322;2023-05-03T00:53:12;101715.88;;;23.89;34.39
56518;BME280;42419;48.760;2.322;2023-05-03T00:55:39;101711.22;;;23.92;34.35
56518;BME280;42419;48.760;2.322;2023-05-03T00:58:04;101717.44;;;23.94;34.25
56518;BME280;42419;48.760;2.322;2023-05-03T01:00:31;101708.34;;;23.97;34.55
56518;BME280;42419;48.760;2.322;2023-05-03T01:02:56;101712.06;;;23.94;34.23
56518;BME280;42419;48.760;2.322;2023-05-03T01:05:22;101713.88;;;23.94;34.32
56518;BME280;42419;48.760;2.322;2023-05-03T01:13:31;101698.56;;;23.96;34.12
56518;BME280;42419;48.760;2.322;2023-05-03T01:16:07;101699.34;;;23.98;34.19
56518;BME280;42419;48.760;2.322;2023-05-03T01:18:39;101696.81;;;23.95;34.25
56518;BME280;42419;48.760;2.322;2023-05-03T01:21:05;101665.97;;;23.80;34.44
56518;BME280;42419;48.760;2.322;2023-05-03T01:23:39;101695.03;;;23.94;34.17
56518;BME280;42419;48.760;2.322;2023-05-03T01:28:41;101689.53;;;23.97;34.35
56518;BME280;42419;48.760;2.322;2023-05-03T01:31:07;101688.66;;;23.96;34.23
56518;BME280;42419;48.760;2.322;2023-05-03T01:33:36;101693.97;;;23.98;33.86
56518;BME280;42419;48.760;2.322;2023-05-03T01:36:12;101693.94;;;23.99;33.78
56518;BME280;42419;48.760;2.322;2023-05-03T01:38:37;101691.09;;;24.02;34.01
56518;BME280;42419;48.760;2.322;2023-05-03T01:41:09;101698.28;;;24.02;33.95
56518;BME280;42419;48.760;2.322;2023-05-03T01:43:35;101702.75;;;24.03;33.93
56518;BME280;42419;48.760;2.322;2023-05-03T01:46:02;101712.63;;;24.02;33.99
56518;BME280;42419;48.760;2.322;2023-05-03T01:48:27;101715.25;;;24.04;34.10
56518;BME280;42419;48.760;2.322;2023-05-03T01:50:52;101717.06;;;24.03;33.88
56518;BME280;42419;48.760;2.322;2023-05-03T01:53:18;101702.78;;;24.01;33.43
56518;BME280;42419;48.760;2.322;2023-05-03T01:55:44;101719.72;;;24.05;33.56
56518;BME280;42419;48.760;2.322;2023-05-03T01:58:09;101695.19;;;23.91;33.58
56518;BME280;42419;48.760;2.322;2023-05-03T02:00:34;101716.19;;;24.03;33.82
56518;BME280;42419;48.760;2.322;2023-05-03T02:03:00;101718.94;;;24.01;33.69
56518;BME280;42419;48.760;2.322;2023-05-03T02:05:25;101696.94;;;23.92;33.73
56518;BME280;42419;48.760;2.322;2023-05-03T02:07:50;101720.69;;;24.02;33.35
56518;BME280;42419;48.760;2.322;2023-05-03T02:10:16;101717.13;;;24.02;33.35
56518;BME280;42419;48.760;2.322;2023-05-03T02:12:42;101712.69;;;24.01;33.32
56518;BME280;42419;48.760;2.322;2023-05-03T02:15:09;101710.94;;;24.00;33.43
56518;BME280;42419;48.760;2.322;2023-05-03T02:17:34;101653.16;;;23.65;33.43
56518;BME280;42419;48.760;2.322;2023-05-03T02:19:59;101694.34;;;23.89;33.53
56518;BME280;42419;48.760;2.322;2023-05-03T02:22:25;101718.06;;;24.01;33.66
56518;BME280;42419;48.760;2.322;2023-05-03T02:24:50;101722.50;;;24.02;33.13
56518;BME280;42419;48.760;2.322;2023-05-03T02:27:16;101708.44;;;23.95;33.36
56518;BME280;42419;48.760;2.322;2023-05-03T02:29:41;101717.31;;;23.97;33.27
56518;BME280;42419;48.760;2.322;2023-05-03T02:32:07;101711.19;;;23.94;33.32
56518;BME280;42419;48.760;2.322;2023-05-03T02:34:32;101730.72;;;23.99;33.61
56518;BME280;42419;48.760;2.322;2023-05-03T02:36:58;101726.22;;;23.99;33.08
56518;BME280;42419;48.760;2.322;2023-05-03T02:39:23;101712.69;;;24.01;33.20
56518;BME280;42419;48.760;2.322;2023-05-03T02:41:48;101725.88;;;24.07;32.98
56518;BME280;42419;48.760;2.322;2023-05-03T02:44:14;101721.19;;;24.12;33.39
56518;BME280;42419;48.760;2.322;2023-05-03T02:46:39;101715.00;;;24.10;33.33
56518;BME280;42419;48.760;2.322;2023-05-03T02:49:06;101720.31;;;24.11;33.62
56518;BME280;42419;48.760;2.322;2023-05-03T02:51:31;101717.69;;;24.10;33.77
56518;BME280;42419;48.760;2.322;2023-05-03T02:53:57;101722.97;;;24.13;33.31
56518;BME280;42419;48.760;2.322;2023-05-03T02:56:22;101713.06;;;24.13;34.00
56518;BME280;42419;48.760;2.322;2023-05-03T02:58:50;101719.34;;;24.14;33.59
56518;BME280;42419;48.760;2.322;2023-05-03T03:01:16;101711.06;;;24.19;33.76
56518;BME280;42419;48.760;2.322;2023-05-03T03:03:41;101719.16;;;24.19;33.75
56518;BME280;42419;48.760;2.322;2023-05-03T03:06:06;101717.25;;;24.21;33.75
56518;BME280;42419;48.760;2.322;2023-05-03T03:08:32;101708.38;;;24.19;33.90
56518;BME280;42419;48.760;2.322;2023-05-03T03:10:57;101703.00;;;24.19;33.73
56518;BME280;42419;48.760;2.322;2023-05-03T03:13:23;101700.41;;;24.15;33.90
56518;BME280;42419;48.760;2.322;2023-05-03T03:15:48;101697.81;;;24.14;33.34
56518;BME280;42419;48.760;2.322;2023-05-03T03:18:13;101697.81;;;24.14;33.56
56518;BME280;42419;48.760;2.322;2023-05-03T03:20:38;101694.16;;;24.15;33.50
56518;BME280;42419;48.760;2.322;2023-05-03T03:23:04;101692.16;;;24.20;33.56
56518;BME280;42419;48.760;2.322;2023-05-03T03:25:29;101688.28;;;24.27;33.29
56518;BME280;42419;48.760;2.322;2023-05-03T03:27:54;101685.50;;;24.29;33.10
56518;BME280;42419;48.760;2.322;2023-05-03T03:30:20;101678.44;;;24.26;33.41
56518;BME280;42419;48.760;2.322;2023-05-03T03:32:45;101680.22;;;24.27;33.23
56518;BME280;42419;48.760;2.322;2023-05-03T03:35:10;101681.00;;;24.29;33.39
56518;BME280;42419;48.760;2.322;2023-05-03T03:37:37;101674.75;;;24.29;33.58
56518;BME280;42419;48.760;2.322;2023-05-03T03:40:03;101675.63;;;24.29;33.62
56518;BME280;42419;48.760;2.322;2023-05-03T03:42:28;101670.25;;;24.29;33.26
56518;BME280;42419;48.760;2.322;2023-05-03T03:44:54;101673.81;;;24.30;33.56
56518;BME280;42419;48.760;2.322;2023-05-03T03:47:19;101663.09;;;24.28;33.21
56518;BME280;42419;48.760;2.322;2023-05-03T03:49:44;101670.25;;;24.29;33.39
56518;BME280;42419;48.760;2.322;2023-05-03T03:52:09;101660.28;;;24.31;33.17
56518;BME280;42419;48.760;2.322;2023-05-03T03:54:35;101662.91;;;24.33;33.63
56518;BME280;42419;48.760;2.322;2023-05-03T03:57:00;101656.53;;;24.35;33.42
56518;BME280;42419;48.760;2.322;2023-05-03T03:59:28;101653.94;;;24.32;33.37
56518;BME280;42419;48.760;2.322;2023-05-03T04:01:53;101666.63;;;24.30;33.09
56518;BME280;42419;48.760;2.322;2023-05-03T04:04:18;101667.50;;;24.31;32.83
56518;BME280;42419;48.760;2.322;2023-05-03T04:06:43;101653.34;;;24.26;32.77
56518;BME280;42419;48.760;2.322;2023-05-03T04:09:09;101657.66;;;24.30;32.88
56518;BME280;42419;48.760;2.322;2023-05-03T04:11:34;101654.91;;;24.31;33.03
56518;BME280;42419;48.760;2.322;2023-05-03T04:14:00;101654.97;;;24.30;32.63
56518;BME280;42419;48.760;2.322;2023-05-03T04:16:26;101654.91;;;24.31;32.50
56518;BME280;42419;48.760;2.322;2023-05-03T04:18:51;101662.09;;;24.31;33.08
56518;BME280;42419;48.760;2.322;2023-05-03T04:21:16;101640.88;;;24.23;32.67
56518;BME280;42419;48.760;2.322;2023-05-03T04:23:42;101660.22;;;24.33;32.49
56518;BME280;42419;48.760;2.322;2023-05-03T04:26:07;101661.03;;;24.35;32.27
56518;BME280;42419;48.760;2.322;2023-05-03T04:28:34;101664.59;;;24.35;32.48
56518;BME280;42419;48.760;2.322;2023-05-03T04:30:59;101664.66;;;24.34;32.11
56518;BME280;42419;48.760;2.322;2023-05-03T04:33:24;101662.72;;;24.37;32.11
56518;BME280;42419;48.760;2.322;2023-05-03T04:35:51;101661.78;;;24.38;31.96
56518;BME280;42419;48.760;2.322;2023-05-03T04:38:16;101662.59;;;24.40;31.90
56518;BME280;42419;48.760;2.322;2023-05-03T04:40:43;101661.72;;;24.40;32.09
56518;BME280;42419;48.760;2.322;2023-05-03T04:43:09;101660.84;;;24.39;31.89
56518;BME280;42419;48.760;2.322;2023-05-03T04:45:35;101659.91;;;24.40;32.18
56518;BME280;42419;48.760;2.322;2023-05-03T04:48:01;101667.00;;;24.41;31.77
56518;BME280;42419;48.760;2.322;2023-05-03T04:50:29;101663.38;;;24.42;31.86
56518;BME280;42419;48.760;2.322;2023-05-03T04:52:54;101669.59;;;24.44;31.95
56518;BME280;42419;48.760;2.322;2023-05-03T04:55:20;101665.16;;;24.43;31.91
56518;BME280;42419;48.760;2.322;2023-05-03T04:57:45;101656.38;;;24.38;32.11
56518;BME280;42419;48.760;2.322;2023-05-03T05:00:11;101667.69;;;24.46;31.73
56518;BME280;42419;48.760;2.322;2023-05-03T05:02:36;101671.41;;;24.44;31.87
56518;BME280;42419;48.760;2.322;2023-05-03T05:05:02;101656.38;;;24.38;31.77
56518;BME280;42419;48.760;2.322;2023-05-03T05:07:28;101670.38;;;24.46;32.17
56518;BME280;42419;48.760;2.322;2023-05-03T05:09:53;101672.13;;;24.49;31.76
56518;BME280;42419;48.760;2.322;2023-05-03T05:12:18;101677.41;;;24.50;31.95
56518;BME280;42419;48.760;2.322;2023-05-03T05:14:44;101671.84;;;24.55;31.75
56518;BME280;42419;48.760;2.322;2023-05-03T05:17:09;101669.22;;;24.53;31.96
56518;BME280;42419;48.760;2.322;2023-05-03T05:19:34;101670.16;;;24.52;31.70
56518;BME280;42419;48.760;2.322;2023-05-03T05:22:00;101670.97;;;24.54;31.42
56518;BME280;42419;48.760;2.322;2023-05-03T05:24:25;101671.84;;;24.55;31.40
56518;BME280;42419;48.760;2.322;2023-05-03T05:26:51;101655.16;;;24.45;31.69
56518;BME280;42419;48.760;2.322;2023-05-03T05:29:16;101674.63;;;24.53;31.34
56518;BME280;42419;48.760;2.322;2023-05-03T05:31:41;101669.22;;;24.53;31.49
56518;BME280;42419;48.760;2.322;2023-05-03T05:34:07;101668.34;;;24.53;31.50
56518;BME280;42419;48.760;2.322;2023-05-03T05:36:32;101664.72;;;24.54;31.33
56518;BME280;42419;48.760;2.322;2023-05-03T05:38:57;101668.34;;;24.53;31.57
56518;BME280;42419;48.760;2.322;2023-05-03T05:41:22;101661.25;;;24.50;31.58
56518;BME280;42419;48.760;2.322;2023-05-03T05:43:48;101662.88;;;24.54;31.41
56518;BME280;42419;48.760;2.322;2023-05-03T05:46:13;101658.56;;;24.50;31.30
56518;BME280;42419;48.760;2.322;2023-05-03T05:48:40;101652.41;;;24.47;31.35
56518;BME280;42419;48.760;2.322;2023-05-03T05:51:05;101667.28;;;24.57;31.26
56518;BME280;42419;48.760;2.322;2023-05-03T05:53:31;101675.34;;;24.57;31.25
56518;BME280;42419;48.760;2.322;2023-05-03T05:55:56;101658.66;;;24.49;30.96
56518;BME280;42419;48.760;2.322;2023-05-03T05:58:21;101674.41;;;24.58;30.89
56518;BME280;42419;48.760;2.322;2023-05-03T06:00:46;101664.78;;;24.52;31.08
56518;BME280;42419;48.760;2.322;2023-05-03T06:03:15;101664.94;;;24.49;31.02
56518;BME280;42419;48.760;2.322;2023-05-03T06:05:41;101685.03;;;24.61;31.17
56518;BME280;42419;48.760;2.322;2023-05-03T06:08:06;101673.53;;;24.57;31.16
56518;BME280;42419;48.760;2.322;2023-05-03T06:10:32;101685.97;;;24.60;31.18
56518;BME280;42419;48.760;2.322;2023-05-03T06:12:57;101622.88;;;24.25;30.81
56518;BME280;42419;48.760;2.322;2023-05-03T06:15:23;101694.78;;;24.64;31.11
56518;BME280;42419;48.760;2.322;2023-05-03T06:17:48;101693.84;;;24.65;31.22
56518;BME280;42419;48.760;2.322;2023-05-03T06:20:13;101678.78;;;24.60;31.15
56518;BME280;42419;48.760;2.322;2023-05-03T06:22:40;101691.16;;;24.65;31.32
56518;BME280;42419;48.760;2.322;2023-05-03T06:25:06;101684.78;;;24.67;30.96
56518;BME280;42419;48.760;2.322;2023-05-03T06:27:32;101678.53;;;24.67;31.01
56518;BME280;42419;48.760;2.322;2023-05-03T06:29:57;101676.75;;;24.66;31.01
56518;BME280;42419;48.760;2.322;2023-05-03T06:32:22;101679.47;;;24.66;31.42
56518;BME280;42419;48.760;2.322;2023-05-03T06:34:48;101658.31;;;24.56;31.21
56518;BME280;42419;48.760;2.322;2023-05-03T06:37:14;101681.13;;;24.68;30.99
56518;BME280;42419;48.760;2.322;2023-05-03T06:39:39;101674.94;;;24.66;31.16
56518;BME280;42419;48.760;2.322;2023-05-03T06:42:05;101674.06;;;24.66;31.29
56518;BME280;42419;48.760;2.322;2023-05-03T06:44:30;101674.03;;;24.67;31.67
56518;BME280;42419;48.760;2.322;2023-05-03T06:46:55;101679.47;;;24.66;31.63
56518;BME280;42419;48.760;2.322;2023-05-03T06:49:21;101682.16;;;24.66;31.31
56518;BME280;42419;48.760;2.322;2023-05-03T06:51:46;101679.50;;;24.64;31.51
56518;BME280;42419;48.760;2.322;2023-05-03T06:54:12;101683.09;;;24.65;31.21
56518;BME280;42419;48.760;2.322;2023-05-03T06:56:37;101680.47;;;24.63;31.60
56518;BME280;42419;48.760;2.322;2023-05-03T06:59:03;101643.56;;;24.45;31.32
56518;BME280;42419;48.760;2.322;2023-05-03T07:01:30;101668.00;;;24.60;31.83
56518;BME280;42419;48.760;2.322;2023-05-03T07:03:55;101660.34;;;24.51;31.42
56518;BME280;42419;48.760;2.322;2023-05-03T07:06:20;101663.66;;;24.58;31.47
56518;BME280;42419;48.760;2.322;2023-05-03T07:08:52;101664.63;;;24.55;31.83
56518;BME280;42419;48.760;2.322;2023-05-03T07:11:21;101664.63;;;24.55;31.41
56518;BME280;42419;48.760;2.322;2023-05-03T07:13:50;101658.47;;;24.53;31.88
56518;BME280;42419;48.760;2.322;2023-05-03T07:16:17;101658.50;;;24.52;31.30
56518;BME280;42419;48.760;2.322;2023-05-03T07:18:42;101661.25;;;24.50;31.91
56518;BME280;42419;48.760;2.322;2023-05-03T07:21:07;101660.38;;;24.50;31.86
56518;BME280;42419;48.760;2.322;2023-05-03T07:23:33;101656.84;;;24.49;31.36
56518;BME280;42419;48.760;2.322;2023-05-03T07:25:58;101655.09;;;24.48;31.92
56518;BME280;42419;48.760;2.322;2023-05-03T07:28:23;101652.41;;;24.47;31.88
56518;BME280;42419;48.760;2.322;2023-05-03T07:30:49;101647.03;;;24.47;31.98
56518;BME280;42419;48.760;2.322;2023-05-03T07:33:15;101649.78;;;24.45;31.48
56518;BME280;42419;48.760;2.322;2023-05-03T07:35:40;101653.34;;;24.46;31.99
56518;BME280;42419;48.760;2.322;2023-05-03T07:38:05;101645.38;;;24.44;31.79
56518;BME280;42419;48.760;2.322;2023-05-03T07:40:31;101642.66;;;24.44;32.00
56518;BME280;42419;48.760;2.322;2023-05-03T07:42:58;101644.53;;;24.42;31.80
56518;BME280;42419;48.760;2.322;2023-05-03T07:45:24;101639.31;;;24.39;31.67
56518;BME280;42419;48.760;2.322;2023-05-03T07:47:49;101633.03;;;24.39;31.60
56518;BME280;42419;48.760;2.322;2023-05-03T07:50:15;101628.59;;;24.38;32.14
56518;BME280;42419;48.760;2.322;2023-05-03T07:52:40;101629.59;;;24.35;31.92
56518;BME280;42419;48.760;2.322;2023-05-03T07:55:07;101614.44;;;24.33;32.22
56518;BME280;42419;48.760;2.322;2023-05-03T07:57:33;101596.22;;;24.19;31.85
56518;BME280;42419;48.760;2.322;2023-05-03T07:59:58;101592.59;;;24.20;31.96
56518;BME280;42419;48.760;2.322;2023-05-03T08:02:23;101607.41;;;24.30;31.92
56518;BME280;42419;48.760;2.322;2023-05-03T08:04:49;101611.03;;;24.29;32.08
56518;BME280;42419;48.760;2.322;2023-05-03T08:07:14;101603.00;;;24.28;32.27
56518;BME280;42419;48.760;2.322;2023-05-03T08:09:41;101604.91;;;24.26;32.29
56518;BME280;42419;48.760;2.322;2023-05-03T08:12:06;101602.34;;;24.23;32.47
56518;BME280;42419;48.760;2.322;2023-05-03T08:14:32;101605.91;;;24.23;32.01
56518;BME280;42419;48.760;2.322;2023-05-03T08:16:58;101603.28;;;24.22;31.98
56518;BME280;42419;48.760;2.322;2023-05-03T08:19:24;101594.53;;;24.16;32.22
56518;BME280;42419;48.760;2.322;2023-05-03T08:21:49;101594.47;;;24.18;32.63
56518;BME280;42419;48.760;2.322;2023-05-03T08:24:18;101584.13;;;24.09;32.74
56518;BME280;42419;48.760;2.322;2023-05-03T08:26:43;101596.34;;;24.16;32.84
56518;BME280;42419;48.760;2.322;2023-05-03T08:29:09;101594.59;;;24.15;32.30
56518;BME280;42419;48.760;2.322;2023-05-03T08:31:35;101592.88;;;24.14;32.55
56518;BME280;42419;48.760;2.322;2023-05-03T08:34:00;101594.59;;;24.15;32.48
56518;BME280;42419;48.760;2.322;2023-05-03T08:36:27;101598.25;;;24.14;32.85
56518;BME280;42419;48.760;2.322;2023-05-03T08:38:53;101592.03;;;24.12;32.52
56518;BME280;42419;48.760;2.322;2023-05-03T08:41:27;101598.31;;;24.12;32.84
56518;BME280;42419;48.760;2.322;2023-05-03T08:43:54;101585.97;;;24.07;32.83
56518;BME280;42419;48.760;2.322;2023-05-03T08:46:20;101594.78;;;24.10;32.32
56518;BME280;42419;48.760;2.322;2023-05-03T08:48:50;101590.47;;;24.06;32.50
56518;BME280;42419;48.760;2.322;2023-05-03T08:51:21;101572.13;;;23.96;32.97
56518;BME280;42419;48.760;2.322;2023-05-03T08:53:47;101586.13;;;24.04;32.71
56518;BME280;42419;48.760;2.322;2023-05-03T08:56:19;101584.22;;;24.06;32.99
56518;BME280;42419;48.760;2.322;2023-05-03T08:58:47;101585.19;;;24.05;32.88
56518;BME280;42419;48.760;2.322;2023-05-03T09:01:12;101579.81;;;24.05;32.53
56518;BME280;42419;48.760;2.322;2023-05-03T09:03:38;101575.34;;;24.04;32.60
56518;BME280;42419;48.760;2.322;2023-05-03T09:06:18;101584.41;;;24.01;32.58
56518;BME280;42419;48.760;2.322;2023-05-03T09:08:43;101580.00;;;24.00;32.59
56518;BME280;42419;48.760;2.322;2023-05-03T09:11:26;101573.81;;;23.98;32.97
56518;BME280;42419;48.760;2.322;2023-05-03T09:13:52;101562.16;;;23.98;32.86
56518;BME280;42419;48.760;2.322;2023-05-03T09:16:22;101565.72;;;23.98;33.04
56518;BME280;42419;48.760;2.322;2023-05-03T09:18:59;101565.72;;;23.98;32.70
56518;BME280;42419;48.760;2.322;2023-05-03T09:21:25;101563.09;;;23.97;32.76
56518;BME280;42419;48.760;2.322;2023-05-03T09:23:51;101562.31;;;23.95;32.66
56518;BME280;42419;48.760;2.322;2023-05-03T09:26:29;101562.34;;;23.93;32.58
56518;BME280;42419;48.760;2.322;2023-05-03T09:28:57;101565.13;;;23.92;33.08
56518;BME280;42419;48.760;2.322;2023-05-03T09:31:22;101557.06;;;23.92;32.87
56518;BME280;42419;48.760;2.322;2023-05-03T09:33:49;101555.34;;;23.89;32.96
56518;BME280;42419;48.760;2.322;2023-05-03T09:36:15;101557.16;;;23.89;32.66
56518;BME280;42419;48.760;2.322;2023-05-03T09:38:41;101558.09;;;23.88;33.00
56518;BME280;42419;48.760;2.322;2023-05-03T09:41:07;101555.53;;;23.85;32.45
56518;BME280;42419;48.760;2.322;2023-05-03T09:43:33;101554.78;;;23.81;32.23
56518;BME280;42419;48.760;2.322;2023-05-03T09:46:10;101544.34;;;23.73;32.18
56518;BME280;42419;48.760;2.322;2023-05-03T09:48:37;101553.06;;;23.79;31.44
56518;BME280;42419;48.760;2.322;2023-05-03T09:51:03;101535.59;;;23.68;31.05
56518;BME280;42419;48.760;2.322;2023-05-03T09:53:33;101553.06;;;23.79;30.91
56518;BME280;42419;48.760;2.322;2023-05-03T09:56:00;101546.09;;;23.74;30.69
56518;BME280;42419;48.760;2.322;2023-05-03T09:58:26;101547.16;;;23.70;30.35
56518;BME280;42419;48.760;2.322;2023-05-03T10:00:53;101536.69;;;23.64;31.02
56518;BME280;42419;48.760;2.322;2023-05-03T10:03:27;101546.34;;;23.68;30.72
56518;BME280;42419;48.760;2.322;2023-05-03T10:05:57;101540.16;;;23.66;30.86
56518;BME280;42419;48.760;2.322;2023-05-03T10:08:38;101539.28;;;23.66;31.40
56518;BME280;42419;48.760;2.322;2023-05-03T10:11:07;101534.78;;;23.66;30.79
56518;BME280;42419;48.760;2.322;2023-05-03T10:13:33;101532.09;;;23.66;30.68
56518;BME280;42419;48.760;2.322;2023-05-03T10:16:07;101528.53;;;23.66;30.32
56518;BME280;42419;48.760;2.322;2023-05-03T10:18:50;101530.34;;;23.65;30.29
56518;BME280;42419;48.760;2.322;2023-05-03T10:21:28;101507.53;;;23.54;30.34
56518;BME280;42419;48.760;2.322;2023-05-03T10:24:14;101525.16;;;23.61;29.93
56518;BME280;42419;48.760;2.322;2023-05-03T10:26:49;101523.34;;;23.61;30.76
56518;BME280;42419;48.760;2.322;2023-05-03T10:29:44;101523.44;;;23.60;30.66
56518;BME280;42419;48.760;2.322;2023-05-03T10:35:13;101518.25;;;23.55;30.70
56518;BME280;42419;48.760;2.322;2023-05-03T10:37:41;101511.16;;;23.53;30.43
56518;BME280;42419;48.760;2.322;2023-05-03T10:40:10;101516.72;;;23.48;30.64
56518;BME280;42419;48.760;2.322;2023-05-03T10:42:37;101509.72;;;23.44;30.54
56518;BME280;42419;48.760;2.322;2023-05-03T10:45:03;101500.88;;;23.42;30.83
56518;BME280;42419;48.760;2.322;2023-05-03T10:47:29;101497.41;;;23.39;30.41
56518;BME280;42419;48.760;2.322;2023-05-03T10:55:23;101482.31;;;23.36;30.83
56518;BME280;42419;48.760;2.322;2023-05-03T10:57:53;101475.16;;;23.35;30.28
56518;BME280;42419;48.760;2.322;2023-05-03T11:05:42;101470.53;;;23.39;31.29
56518;BME280;42419;48.760;2.322;2023-05-03T11:08:20;101465.25;;;23.37;31.16
56518;BME280;42419;48.760;2.322;2023-05-03T11:10:47;101458.34;;;23.30;31.25
56518;BME280;42419;48.760;2.322;2023-05-03T11:13:14;101458.13;;;23.36;31.51
56518;BME280;42419;48.760;2.322;2023-05-03T11:15:39;101460.81;;;23.36;31.81
56518;BME280;42419;48.760;2.322;2023-05-03T11:18:09;101459.88;;;23.37;31.57
56518;BME280;42419;48.760;2.322;2023-05-03T11:20:37;101459.97;;;23.34;31.55
56518;BME280;42419;48.760;2.322;2023-05-03T11:23:03;101459.88;;;23.37;31.78
56518;BME280;42419;48.760;2.322;2023-05-03T11:25:29;101448.25;;;23.37;31.81
56518;BME280;42419;48.760;2.322;2023-05-03T11:27:55;101447.41;;;23.35;31.73
56518;BME280;42419;48.760;2.322;2023-05-03T11:30:20;101439.34;;;23.35;31.75
56518;BME280;42419;48.760;2.322;2023-05-03T11:32:46;101379.69;;;23.05;32.12
56518;BME280;42419;48.760;2.322;2023-05-03T11:35:12;101436.63;;;23.36;32.18
56518;BME280;42419;48.760;2.322;2023-05-03T11:37:38;101429.44;;;23.37;32.52
56518;BME280;42419;48.760;2.322;2023-05-03T11:40:04;101423.19;;;23.36;32.33
56518;BME280;42419;48.760;2.322;2023-05-03T11:42:30;101411.56;;;23.36;32.59
56518;BME280;42419;48.760;2.322;2023-05-03T11:44:56;101403.44;;;23.37;32.74
56518;BME280;42419;48.760;2.322;2023-05-03T11:47:21;101406.13;;;23.37;33.04
56518;BME280;42419;48.760;2.322;2023-05-03T11:49:54;101400.81;;;23.36;33.13
56518;BME280;42419;48.760;2.322;2023-05-03T11:52:21;101396.31;;;23.36;32.94
56518;BME280;42419;48.760;2.322;2023-05-03T11:54:47;101384.69;;;23.36;33.06
56518;BME280;42419;48.760;2.322;2023-05-03T11:57:12;101386.50;;;23.35;33.01
56518;BME280;42419;48.760;2.322;2023-05-03T11:59:39;101382.00;;;23.36;32.72
56518;BME280;42419;48.760;2.322;2023-05-03T12:02:06;101379.31;;;23.36;32.88
56518;BME280;42419;48.760;2.322;2023-05-03T12:04:31;101374.88;;;23.35;32.99
56518;BME280;42419;48.760;2.322;2023-05-03T12:06:57;101376.66;;;23.34;33.23
56518;BME280;42419;48.760;2.322;2023-05-03T12:09:24;101379.44;;;23.33;32.97
56518;BME280;42419;48.760;2.322;2023-05-03T12:11:50;101358.94;;;23.30;33.04
56518;BME280;42419;48.760;2.322;2023-05-03T12:14:15;101357.47;;;23.23;33.22
56518;BME280;42419;48.760;2.322;2023-05-03T12:16:49;101356.38;;;23.27;33.36
56518;BME280;42419;48.760;2.322;2023-05-03T12:19:26;101365.38;;;23.26;33.15
56518;BME280;42419;48.760;2.322;2023-05-03T12:21:52;101352.88;;;23.25;33.07
56518;BME280;42419;48.760;2.322;2023-05-03T12:24:17;101373.53;;;23.24;33.04
56518;BME280;42419;48.760;2.322;2023-05-03T12:26:46;101336.38;;;23.12;32.97
56518;BME280;42419;48.760;2.322;2023-05-03T12:29:12;101359.28;;;23.22;32.55
56518;BME280;42419;48.760;2.322;2023-05-03T12:31:38;101352.09;;;23.23;32.46
56518;BME280;42419;48.760;2.322;2023-05-03T12:34:03;101342.28;;;23.22;32.67
56518;BME280;42419;48.760;2.322;2023-05-03T12:36:30;101345.84;;;23.22;33.09
56518;BME280;42419;48.760;2.322;2023-05-03T12:39:01;101315.00;;;23.11;33.10
56518;BME280;42419;48.760;2.322;2023-05-03T12:41:27;101335.09;;;23.22;33.19
56518;BME280;42419;48.760;2.322;2023-05-03T12:43:56;101329.72;;;23.22;33.01
56518;BME280;42419;48.760;2.322;2023-05-03T12:46:22;101318.31;;;23.16;33.04
56518;BME280;42419;48.760;2.322;2023-05-03T12:48:48;101319.34;;;23.13;33.30
56518;BME280;42419;48.760;2.322;2023-05-03T12:51:14;101309.66;;;23.09;33.03
56518;BME280;42419;48.760;2.322;2023-05-03T12:53:39;101322.66;;;23.20;32.96
56518;BME280;42419;48.760;2.322;2023-05-03T12:56:05;101323.59;;;23.19;33.01
56518;BME280;42419;48.760;2.322;2023-05-03T12:58:31;101320.03;;;23.18;33.36
56518;BME280;42419;48.760;2.322;2023-05-03T13:00:56;101310.16;;;23.19;33.45
56518;BME280;42419;48.760;2.322;2023-05-03T13:03:22;101312.84;;;23.19;33.47
56518;BME280;42419;48.760;2.322;2023-05-03T13:05:47;101312.84;;;23.19;33.30
56518;BME280;42419;48.760;2.322;2023-05-03T13:08:13;101309.31;;;23.17;33.20
56518;BME280;42419;48.760;2.322;2023-05-03T13:10:38;101308.44;;;23.16;33.06